sensor_id;sensor_type;location;lat;lon;timestamp;temperature;humidity
19403;DHT22;9837;48.888;8.998;2023-10-09T00:01:28;21.90;44.90
19403;DHT22;9837;48.888;8.998;2023-10-09T00:03:56;21.90;44.50
19403;DHT22;9837;48.888;8.998;2023-10-09T00:06:24;22.00;44.70
19403;DHT22;9837;48.888;8.998;2023-10-09T00:09:02;22.20;44.70
19403;DHT22;9837;48.888;8.998;2023-10-09T00:11:42;22.20;44.40
19403;DHT22;9837;48.888;8.998;2023-10-09T00:16:36;22.30;44.50
19403;DHT22;9837;48.888;8.998;2023-10-09T00:19:08;22.30;44.60
19403;DHT22;9837;48.888;8.998;2023-10-09T00:21:48;22.30;44.40
19403;DHT22;9837;48.888;8.998;2023-10-09T00:24:15;22.30;44.60
19403;DHT22;9837;48.888;8.998;2023-10-09T00:26:53;22.20;44.70
19403;DHT22;9837;48.888;8.998;2023-10-09T00:29:37;22.10;44.80
19403;DHT22;9837;48.888;8.998;2023-10-09T00:32:09;22.10;45.10
19403;DHT22;9837;48.888;8.998;2023-10-09T00:34:51;22.00;45.30
19403;DHT22;9837;48.888;8.998;2023-10-09T00:37:17;22.00;45.50
19403;DHT22;9837;48.888;8.998;2023-10-09T00:39:45;22.00;45.50
19403;DHT22;9837;48.888;8.998;2023-10-09T00:44:47;22.00;45.70
19403;DHT22;9837;48.888;8.998;2023-10-09T00:47:15;22.00;45.80
19403;DHT22;9837;48.888;8.998;2023-10-09T00:49:55;21.90;45.80
19403;DHT22;9837;48.888;8.998;2023-10-09T00:52:30;21.90;45.70
19403;DHT22;9837;48.888;8.998;2023-10-09T00:55:08;21.90;45.80
19403;DHT22;9837;48.888;8.998;2023-10-09T00:57:41;21.80;45.60
19403;DHT22;9837;48.888;8.998;2023-10-09T01:03:04;21.90;45.70
19403;DHT22;9837;48.888;8.998;2023-10-09T01:06:01;21.90;45.80
19403;DHT22;9837;48.888;8.998;2023-10-09T01:08:38;21.80;46.00
19403;DHT22;9837;48.888;8.998;2023-10-09T01:11:10;21.70;46.50
19403;DHT22;9837;48.888;8.998;2023-10-09T01:13:44;21.50;46.70
19403;DHT22;9837;48.888;8.998;2023-10-09T01:16:16;21.30;47.90
19403;DHT22;9837;48.888;8.998;2023-10-09T01:18:47;21.10;49.00
19403;DHT22;9837;48.888;8.998;2023-10-09T01:21:18;20.80;50.00
19403;DHT22;9837;48.888;8.998;2023-10-09T01:23:48;20.70;50.50
19403;DHT22;9837;48.888;8.998;2023-10-09T01:26:30;20.70;50.70
19403;DHT22;9837;48.888;8.998;2023-10-09T01:29:06;20.70;50.80
19403;DHT22;9837;48.888;8.998;2023-10-09T01:31:36;20.60;51.10
19403;DHT22;9837;48.888;8.998;2023-10-09T01:34:03;20.60;51.40
19403;DHT22;9837;48.888;8.998;2023-10-09T01:36:38;20.70;51.70
19403;DHT22;9837;48.888;8.998;2023-10-09T01:39:05;20.60;51.90
19403;DHT22;9837;48.888;8.998;2023-10-09T01:41:55;20.70;52.10
19403;DHT22;9837;48.888;8.998;2023-10-09T01:44:25;20.80;52.30
19403;DHT22;9837;48.888;8.998;2023-10-09T01:46:52;20.80;52.10
19403;DHT22;9837;48.888;8.998;2023-10-09T01:49:20;20.80;52.00
19403;DHT22;9837;48.888;8.998;2023-10-09T01:51:54;20.70;51.90
19403;DHT22;9837;48.888;8.998;2023-10-09T01:54:19;20.60;51.00
19403;DHT22;9837;48.888;8.998;2023-10-09T01:57:02;20.80;50.40
19403;DHT22;9837;48.888;8.998;2023-10-09T01:59:32;20.80;50.00
19403;DHT22;9837;48.888;8.998;2023-10-09T02:01:57;20.90;49.30
19403;DHT22;9837;48.888;8.998;2023-10-09T02:04:26;21.00;48.60
19403;DHT22;9837;48.888;8.998;2023-10-09T02:06:52;21.10;48.50
19403;DHT22;9837;48.888;8.998;2023-10-09T02:09:18;21.20;48.20
19403;DHT22;9837;48.888;8.998;2023-10-09T02:11:51;21.20;47.40
19403;DHT22;9837;48.888;8.998;2023-10-09T02:14:16;21.40;47.30
19403;DHT22;9837;48.888;8.998;2023-10-09T02:16:48;21.40;47.10
19403;DHT22;9837;48.888;8.998;2023-10-09T02:19:34;21.50;46.90
19403;DHT22;9837;48.888;8.998;2023-10-09T02:22:02;21.60;46.60
19403;DHT22;9837;48.888;8.998;2023-10-09T02:24:44;21.60;46.60
19403;DHT22;9837;48.888;8.998;2023-10-09T02:27:23;21.60;46.30
19403;DHT22;9837;48.888;8.998;2023-10-09T02:30:08;21.70;46.30
19403;DHT22;9837;48.888;8.998;2023-10-09T02:32:53;21.70;46.40
19403;DHT22;9837;48.888;8.998;2023-10-09T02:38:09;21.70;46.60
19403;DHT22;9837;48.888;8.998;2023-10-09T02:40:40;21.70;46.60
19403;DHT22;9837;48.888;8.998;2023-10-09T02:43:26;21.70;46.90
19403;DHT22;9837;48.888;8.998;2023-10-09T02:45:52;21.70;46.90
19403;DHT22;9837;48.888;8.998;2023-10-09T02:48:18;21.60;46.90
19403;DHT22;9837;48.888;8.998;2023-10-09T02:50:50;21.60;47.00
19403;DHT22;9837;48.888;8.998;2023-10-09T02:53:17;21.60;47.10
19403;DHT22;9837;48.888;8.998;2023-10-09T02:55:54;21.50;47.40
19403;DHT22;9837;48.888;8.998;2023-10-09T03:01:10;21.50;47.00
19403;DHT22;9837;48.888;8.998;2023-10-09T03:03:36;21.50;46.90
19403;DHT22;9837;48.888;8.998;2023-10-09T03:06:04;21.50;46.80
19403;DHT22;9837;48.888;8.998;2023-10-09T03:08:36;21.50;46.80
19403;DHT22;9837;48.888;8.998;2023-10-09T03:11:02;21.50;46.80
19403;DHT22;9837;48.888;8.998;2023-10-09T03:13:28;21.60;46.70
19403;DHT22;9837;48.888;8.998;2023-10-09T03:15:54;21.60;46.70
19403;DHT22;9837;48.888;8.998;2023-10-09T03:18:19;21.60;46.50
19403;DHT22;9837;48.888;8.998;2023-10-09T03:23:12;21.60;46.30
19403;DHT22;9837;48.888;8.998;2023-10-09T03:25:40;21.50;46.70
19403;DHT22;9837;48.888;8.998;2023-10-09T03:28:06;21.60;46.80
19403;DHT22;9837;48.888;8.998;2023-10-09T03:30:32;21.60;47.00
19403;DHT22;9837;48.888;8.998;2023-10-09T03:32:58;21.60;46.90
19403;DHT22;9837;48.888;8.998;2023-10-09T03:35:26;21.60;46.50
19403;DHT22;9837;48.888;8.998;2023-10-09T03:37:58;21.60;46.80
19403;DHT22;9837;48.888;8.998;2023-10-09T03:40:44;21.50;47.30
19403;DHT22;9837;48.888;8.998;2023-10-09T03:43:13;21.40;47.20
19403;DHT22;9837;48.888;8.998;2023-10-09T03:45:40;21.50;47.10
19403;DHT22;9837;48.888;8.998;2023-10-09T03:48:17;21.50;47.60
19403;DHT22;9837;48.888;8.998;2023-10-09T03:50:57;21.40;47.80
19403;DHT22;9837;48.888;8.998;2023-10-09T03:53:38;21.30;47.70
19403;DHT22;9837;48.888;8.998;2023-10-09T03:56:08;21.30;47.70
19403;DHT22;9837;48.888;8.998;2023-10-09T03:58:41;21.20;47.90
19403;DHT22;9837;48.888;8.998;2023-10-09T04:01:12;21.20;48.50
19403;DHT22;9837;48.888;8.998;2023-10-09T04:03:53;21.10;48.90
19403;DHT22;9837;48.888;8.998;2023-10-09T04:06:29;21.00;48.80
19403;DHT22;9837;48.888;8.998;2023-10-09T04:08:58;21.00;48.90
19403;DHT22;9837;48.888;8.998;2023-10-09T04:11:25;20.70;49.00
19403;DHT22;9837;48.888;8.998;2023-10-09T04:16:35;20.90;49.40
19403;DHT22;9837;48.888;8.998;2023-10-09T04:21:47;20.80;48.60
19403;DHT22;9837;48.888;8.998;2023-10-09T04:24:14;20.80;49.00
19403;DHT22;9837;48.888;8.998;2023-10-09T04:26:40;20.70;49.10
19403;DHT22;9837;48.888;8.998;2023-10-09T04:29:16;20.80;49.00
19403;DHT22;9837;48.888;8.998;2023-10-09T04:31:55;20.80;49.00
19403;DHT22;9837;48.888;8.998;2023-10-09T04:34:25;20.80;48.90
19403;DHT22;9837;48.888;8.998;2023-10-09T04:36:57;20.80;48.90
19403;DHT22;9837;48.888;8.998;2023-10-09T04:39:42;20.80;49.00
19403;DHT22;9837;48.888;8.998;2023-10-09T04:44:49;20.80;49.40
19403;DHT22;9837;48.888;8.998;2023-10-09T04:47:31;20.80;49.00
19403;DHT22;9837;48.888;8.998;2023-10-09T04:50:15;20.80;49.10
19403;DHT22;9837;48.888;8.998;2023-10-09T04:55:10;20.80;49.00
19403;DHT22;9837;48.888;8.998;2023-10-09T04:57:39;20.80;49.10
19403;DHT22;9837;48.888;8.998;2023-10-09T05:00:09;20.80;49.20
19403;DHT22;9837;48.888;8.998;2023-10-09T05:03:10;20.80;48.90
19403;DHT22;9837;48.888;8.998;2023-10-09T05:05:38;20.70;48.50
19403;DHT22;9837;48.888;8.998;2023-10-09T05:08:11;20.90;48.60
19403;DHT22;9837;48.888;8.998;2023-10-09T05:10:51;21.00;48.30
19403;DHT22;9837;48.888;8.998;2023-10-09T05:13:34;21.00;47.90
19403;DHT22;9837;48.888;8.998;2023-10-09T05:16:14;21.10;47.70
19403;DHT22;9837;48.888;8.998;2023-10-09T05:18:54;21.10;47.30
19403;DHT22;9837;48.888;8.998;2023-10-09T05:21:39;21.20;47.20
19403;DHT22;9837;48.888;8.998;2023-10-09T05:24:08;21.30;47.00
19403;DHT22;9837;48.888;8.998;2023-10-09T05:26:42;21.40;47.00
19403;DHT22;9837;48.888;8.998;2023-10-09T05:29:14;21.40;46.90
19403;DHT22;9837;48.888;8.998;2023-10-09T05:32:05;21.40;47.10
19403;DHT22;9837;48.888;8.998;2023-10-09T05:34:44;21.40;47.00
19403;DHT22;9837;48.888;8.998;2023-10-09T05:37:32;21.50;46.80
19403;DHT22;9837;48.888;8.998;2023-10-09T05:40:05;21.50;46.90
19403;DHT22;9837;48.888;8.998;2023-10-09T05:42:44;21.50;46.60
19403;DHT22;9837;48.888;8.998;2023-10-09T05:45:16;21.50;46.60
19403;DHT22;9837;48.888;8.998;2023-10-09T05:50:43;21.60;47.70
19403;DHT22;9837;48.888;8.998;2023-10-09T05:53:20;21.70;46.60
19403;DHT22;9837;48.888;8.998;2023-10-09T05:56:04;21.70;46.50
19403;DHT22;9837;48.888;8.998;2023-10-09T05:58:48;21.80;46.50
19403;DHT22;9837;48.888;8.998;2023-10-09T06:01:32;21.70;47.20
19403;DHT22;9837;48.888;8.998;2023-10-09T06:04:17;21.70;47.20
19403;DHT22;9837;48.888;8.998;2023-10-09T06:06:44;21.70;46.90
19403;DHT22;9837;48.888;8.998;2023-10-09T06:09:14;21.70;47.20
19403;DHT22;9837;48.888;8.998;2023-10-09T06:11:41;21.70;47.20
19403;DHT22;9837;48.888;8.998;2023-10-09T06:14:12;21.70;47.70
19403;DHT22;9837;48.888;8.998;2023-10-09T06:16:40;21.70;48.20
19403;DHT22;9837;48.888;8.998;2023-10-09T06:19:24;21.60;48.00
19403;DHT22;9837;48.888;8.998;2023-10-09T06:22:08;21.60;48.60
19403;DHT22;9837;48.888;8.998;2023-10-09T06:24:37;21.60;48.60
19403;DHT22;9837;48.888;8.998;2023-10-09T06:27:19;21.70;48.50
19403;DHT22;9837;48.888;8.998;2023-10-09T06:29:57;21.60;48.30
19403;DHT22;9837;48.888;8.998;2023-10-09T06:32:42;21.70;48.10
19403;DHT22;9837;48.888;8.998;2023-10-09T06:37:57;21.90;47.80
19403;DHT22;9837;48.888;8.998;2023-10-09T06:40:29;21.90;47.60
19403;DHT22;9837;48.888;8.998;2023-10-09T06:43:04;22.00;47.60
19403;DHT22;9837;48.888;8.998;2023-10-09T06:45:37;22.10;47.50
19403;DHT22;9837;48.888;8.998;2023-10-09T06:48:09;22.10;47.80
19403;DHT22;9837;48.888;8.998;2023-10-09T06:50:55;22.10;48.30
19403;DHT22;9837;48.888;8.998;2023-10-09T06:53:21;22.10;48.60
19403;DHT22;9837;48.888;8.998;2023-10-09T06:55:53;22.20;48.40
19403;DHT22;9837;48.888;8.998;2023-10-09T06:58:30;22.20;48.00
19403;DHT22;9837;48.888;8.998;2023-10-09T07:01:07;22.20;48.30
19403;DHT22;9837;48.888;8.998;2023-10-09T07:03:50;22.20;48.40
19403;DHT22;9837;48.888;8.998;2023-10-09T07:06:20;22.20;48.30
19403;DHT22;9837;48.888;8.998;2023-10-09T07:08:50;22.20;48.40
19403;DHT22;9837;48.888;8.998;2023-10-09T07:11:35;22.20;48.60
19403;DHT22;9837;48.888;8.998;2023-10-09T07:14:17;22.00;49.20
19403;DHT22;9837;48.888;8.998;2023-10-09T07:16:56;22.00;50.50
19403;DHT22;9837;48.888;8.998;2023-10-09T07:19:54;21.90;51.00
19403;DHT22;9837;48.888;8.998;2023-10-09T07:24:50;22.00;50.90
19403;DHT22;9837;48.888;8.998;2023-10-09T07:27:26;22.00;50.10
19403;DHT22;9837;48.888;8.998;2023-10-09T07:30:30;22.20;50.00
19403;DHT22;9837;48.888;8.998;2023-10-09T07:33:00;22.20;49.70
19403;DHT22;9837;48.888;8.998;2023-10-09T07:35:43;22.30;49.60
19403;DHT22;9837;48.888;8.998;2023-10-09T07:38:19;22.30;49.70
19403;DHT22;9837;48.888;8.998;2023-10-09T07:41:03;22.40;49.20
19403;DHT22;9837;48.888;8.998;2023-10-09T07:43:34;22.50;48.80
19403;DHT22;9837;48.888;8.998;2023-10-09T07:46:11;22.60;48.70
19403;DHT22;9837;48.888;8.998;2023-10-09T07:48:57;22.80;48.90
19403;DHT22;9837;48.888;8.998;2023-10-09T07:51:24;22.90;48.60
19403;DHT22;9837;48.888;8.998;2023-10-09T07:53:57;23.00;48.20
19403;DHT22;9837;48.888;8.998;2023-10-09T07:56:32;23.10;47.90
19403;DHT22;9837;48.888;8.998;2023-10-09T07:59:07;23.20;47.80
19403;DHT22;9837;48.888;8.998;2023-10-09T08:01:47;23.30;48.00
19403;DHT22;9837;48.888;8.998;2023-10-09T08:04:28;23.40;47.80
19403;DHT22;9837;48.888;8.998;2023-10-09T08:07:10;23.50;47.50
19403;DHT22;9837;48.888;8.998;2023-10-09T08:12:37;23.70;46.80
19403;DHT22;9837;48.888;8.998;2023-10-09T08:15:23;23.80;46.80
19403;DHT22;9837;48.888;8.998;2023-10-09T08:18:00;24.00;46.70
19403;DHT22;9837;48.888;8.998;2023-10-09T08:20:44;24.10;46.40
19403;DHT22;9837;48.888;8.998;2023-10-09T08:23:28;24.20;46.20
19403;DHT22;9837;48.888;8.998;2023-10-09T08:26:14;24.30;46.70
19403;DHT22;9837;48.888;8.998;2023-10-09T08:31:19;24.40;46.10
19403;DHT22;9837;48.888;8.998;2023-10-09T08:34:00;24.50;46.20
19403;DHT22;9837;48.888;8.998;2023-10-09T08:36:27;25.50;46.30
19403;DHT22;9837;48.888;8.998;2023-10-09T08:39:05;24.60;45.60
19403;DHT22;9837;48.888;8.998;2023-10-09T08:41:42;24.70;45.20
19403;DHT22;9837;48.888;8.998;2023-10-09T08:44:12;24.70;44.20
19403;DHT22;9837;48.888;8.998;2023-10-09T08:49:07;24.70;44.20
19403;DHT22;9837;48.888;8.998;2023-10-09T08:51:35;24.80;43.60
19403;DHT22;9837;48.888;8.998;2023-10-09T08:54:01;24.90;43.60
19403;DHT22;9837;48.888;8.998;2023-10-09T08:56:27;24.90;43.60
19403;DHT22;9837;48.888;8.998;2023-10-09T08:58:56;25.00;43.50
19403;DHT22;9837;48.888;8.998;2023-10-09T09:01:23;24.90;43.00
19403;DHT22;9837;48.888;8.998;2023-10-09T09:03:51;24.90;43.10
19403;DHT22;9837;48.888;8.998;2023-10-09T09:06:20;24.80;43.10
19403;DHT22;9837;48.888;8.998;2023-10-09T09:08:46;24.80;43.70
19403;DHT22;9837;48.888;8.998;2023-10-09T09:11:16;24.90;43.50
19403;DHT22;9837;48.888;8.998;2023-10-09T09:13:44;25.00;43.40
19403;DHT22;9837;48.888;8.998;2023-10-09T09:16:23;24.90;43.30
19403;DHT22;9837;48.888;8.998;2023-10-09T09:19:03;24.90;43.90
19403;DHT22;9837;48.888;8.998;2023-10-09T09:21:39;24.80;44.50
19403;DHT22;9837;48.888;8.998;2023-10-09T09:24:07;24.70;44.00
19403;DHT22;9837;48.888;8.998;2023-10-09T09:26:50;24.80;44.50
19403;DHT22;9837;48.888;8.998;2023-10-09T09:34:49;25.30;44.40
19403;DHT22;9837;48.888;8.998;2023-10-09T09:37:22;25.50;44.60
19403;DHT22;9837;48.888;8.998;2023-10-09T09:40:00;25.70;44.10
19403;DHT22;9837;48.888;8.998;2023-10-09T09:42:42;25.80;44.30
19403;DHT22;9837;48.888;8.998;2023-10-09T09:45:10;25.90;43.20
19403;DHT22;9837;48.888;8.998;2023-10-09T09:47:36;26.00;43.80
19403;DHT22;9837;48.888;8.998;2023-10-09T09:50:05;26.20;43.20
19403;DHT22;9837;48.888;8.998;2023-10-09T09:52:39;26.40;43.50
19403;DHT22;9837;48.888;8.998;2023-10-09T09:55:07;26.50;42.60
19403;DHT22;9837;48.888;8.998;2023-10-09T09:57:40;26.60;42.10
19403;DHT22;9837;48.888;8.998;2023-10-09T10:00:08;26.80;42.40
19403;DHT22;9837;48.888;8.998;2023-10-09T10:02:56;26.90;42.20
19403;DHT22;9837;48.888;8.998;2023-10-09T10:05:25;27.00;42.00
19403;DHT22;9837;48.888;8.998;2023-10-09T10:07:58;27.20;41.70
19403;DHT22;9837;48.888;8.998;2023-10-09T10:10:34;27.20;41.80
19403;DHT22;9837;48.888;8.998;2023-10-09T10:13:00;27.20;41.70
19403;DHT22;9837;48.888;8.998;2023-10-09T10:18:23;27.10;41.20
19403;DHT22;9837;48.888;8.998;2023-10-09T10:24:02;27.30;40.70
19403;DHT22;9837;48.888;8.998;2023-10-09T10:26:37;27.20;40.10
19403;DHT22;9837;48.888;8.998;2023-10-09T10:29:19;27.20;40.40
19403;DHT22;9837;48.888;8.998;2023-10-09T10:32:01;27.20;40.10
19403;DHT22;9837;48.888;8.998;2023-10-09T10:34:53;27.10;39.90
19403;DHT22;9837;48.888;8.998;2023-10-09T10:37:38;27.10;40.80
19403;DHT22;9837;48.888;8.998;2023-10-09T10:40:10;27.40;40.20
19403;DHT22;9837;48.888;8.998;2023-10-09T10:43:01;27.40;39.80
19403;DHT22;9837;48.888;8.998;2023-10-09T10:45:44;27.20;39.70
19403;DHT22;9837;48.888;8.998;2023-10-09T10:50:49;27.20;39.80
19403;DHT22;9837;48.888;8.998;2023-10-09T10:53:22;27.20;40.40
19403;DHT22;9837;48.888;8.998;2023-10-09T10:55:59;27.40;39.70
19403;DHT22;9837;48.888;8.998;2023-10-09T10:58:54;27.50;39.80
19403;DHT22;9837;48.888;8.998;2023-10-09T11:01:33;27.80;39.80
19403;DHT22;9837;48.888;8.998;2023-10-09T11:04:18;27.80;38.50
19403;DHT22;9837;48.888;8.998;2023-10-09T11:06:51;27.80;38.80
19403;DHT22;9837;48.888;8.998;2023-10-09T11:12:04;28.00;39.00
19403;DHT22;9837;48.888;8.998;2023-10-09T11:14:48;28.20;38.60
19403;DHT22;9837;48.888;8.998;2023-10-09T11:17:32;28.30;38.70
19403;DHT22;9837;48.888;8.998;2023-10-09T11:22:30;27.80;37.80
19403;DHT22;9837;48.888;8.998;2023-10-09T11:25:01;27.60;38.20
19403;DHT22;9837;48.888;8.998;2023-10-09T11:27:40;27.60;38.30
19403;DHT22;9837;48.888;8.998;2023-10-09T11:30:15;27.70;38.60
19403;DHT22;9837;48.888;8.998;2023-10-09T11:32:47;27.70;38.50
19403;DHT22;9837;48.888;8.998;2023-10-09T11:35:15;27.60;38.40
19403;DHT22;9837;48.888;8.998;2023-10-09T11:37:56;27.60;37.90
19403;DHT22;9837;48.888;8.998;2023-10-09T11:40:33;27.50;38.20
19403;DHT22;9837;48.888;8.998;2023-10-09T11:43:16;27.50;38.80
19403;DHT22;9837;48.888;8.998;2023-10-09T11:45:42;27.50;39.10
19403;DHT22;9837;48.888;8.998;2023-10-09T11:48:21;27.50;38.10
19403;DHT22;9837;48.888;8.998;2023-10-09T11:51:12;27.60;37.80
19403;DHT22;9837;48.888;8.998;2023-10-09T11:53:47;27.60;37.60
19403;DHT22;9837;48.888;8.998;2023-10-09T11:56:16;27.60;37.70
19403;DHT22;9837;48.888;8.998;2023-10-09T11:58:48;27.60;37.60
19403;DHT22;9837;48.888;8.998;2023-10-09T12:01:17;27.60;37.40
19403;DHT22;9837;48.888;8.998;2023-10-09T12:06:20;27.60;37.00
19403;DHT22;9837;48.888;8.998;2023-10-09T12:08:48;27.60;35.80
19403;DHT22;9837;48.888;8.998;2023-10-09T12:11:16;27.50;34.80
19403;DHT22;9837;48.888;8.998;2023-10-09T12:13:54;27.60;35.40
19403;DHT22;9837;48.888;8.998;2023-10-09T12:16:22;27.80;35.20
19403;DHT22;9837;48.888;8.998;2023-10-09T12:18:53;27.90;34.30
19403;DHT22;9837;48.888;8.998;2023-10-09T12:21:23;27.90;34.40
19403;DHT22;9837;48.888;8.998;2023-10-09T12:23:49;28.00;34.30
19403;DHT22;9837;48.888;8.998;2023-10-09T12:26:14;28.10;34.40
19403;DHT22;9837;48.888;8.998;2023-10-09T12:28:44;28.20;35.50
19403;DHT22;9837;48.888;8.998;2023-10-09T12:31:12;28.30;35.20
19403;DHT22;9837;48.888;8.998;2023-10-09T12:33:40;28.40;33.80
19403;DHT22;9837;48.888;8.998;2023-10-09T12:36:07;28.30;32.30
19403;DHT22;9837;48.888;8.998;2023-10-09T12:38:43;28.10;33.70
19403;DHT22;9837;48.888;8.998;2023-10-09T12:41:11;28.20;33.50
19403;DHT22;9837;48.888;8.998;2023-10-09T12:43:54;28.10;33.90
19403;DHT22;9837;48.888;8.998;2023-10-09T12:46:20;28.20;34.60
19403;DHT22;9837;48.888;8.998;2023-10-09T12:48:49;28.30;34.40
19403;DHT22;9837;48.888;8.998;2023-10-09T12:51:15;28.30;35.00
19403;DHT22;9837;48.888;8.998;2023-10-09T12:53:44;28.20;35.40
19403;DHT22;9837;48.888;8.998;2023-10-09T12:56:11;28.10;36.20
19403;DHT22;9837;48.888;8.998;2023-10-09T13:01:18;28.40;35.70
19403;DHT22;9837;48.888;8.998;2023-10-09T13:08:41;28.80;33.30
19403;DHT22;9837;48.888;8.998;2023-10-09T13:11:09;28.80;32.40
19403;DHT22;9837;48.888;8.998;2023-10-09T13:13:42;28.80;30.00
19403;DHT22;9837;48.888;8.998;2023-10-09T13:16:10;29.00;30.00
19403;DHT22;9837;48.888;8.998;2023-10-09T13:18:41;29.20;30.20
19403;DHT22;9837;48.888;8.998;2023-10-09T13:21:25;29.40;29.70
19403;DHT22;9837;48.888;8.998;2023-10-09T13:23:57;29.60;30.00
19403;DHT22;9837;48.888;8.998;2023-10-09T13:26:23;29.70;29.50
19403;DHT22;9837;48.888;8.998;2023-10-09T13:28:51;29.90;29.50
19403;DHT22;9837;48.888;8.998;2023-10-09T13:31:18;30.00;30.10
19403;DHT22;9837;48.888;8.998;2023-10-09T13:33:45;30.10;29.10
19403;DHT22;9837;48.888;8.998;2023-10-09T13:36:11;30.10;29.30
19403;DHT22;9837;48.888;8.998;2023-10-09T13:38:45;30.20;29.30
19403;DHT22;9837;48.888;8.998;2023-10-09T13:41:11;30.20;29.20
19403;DHT22;9837;48.888;8.998;2023-10-09T13:43:43;30.20;28.00
19403;DHT22;9837;48.888;8.998;2023-10-09T13:46:12;30.20;28.20
19403;DHT22;9837;48.888;8.998;2023-10-09T13:48:41;30.20;28.10
19403;DHT22;9837;48.888;8.998;2023-10-09T13:51:11;30.20;28.40
19403;DHT22;9837;48.888;8.998;2023-10-09T13:53:46;30.40;28.50
19403;DHT22;9837;48.888;8.998;2023-10-09T13:56:17;30.50;28.00
19403;DHT22;9837;48.888;8.998;2023-10-09T13:58:52;30.50;27.60
19403;DHT22;9837;48.888;8.998;2023-10-09T14:01:19;30.40;26.90
19403;DHT22;9837;48.888;8.998;2023-10-09T14:03:59;30.30;27.50
19403;DHT22;9837;48.888;8.998;2023-10-09T14:06:26;30.30;28.30
19403;DHT22;9837;48.888;8.998;2023-10-09T14:09:00;30.20;27.70
19403;DHT22;9837;48.888;8.998;2023-10-09T14:11:31;30.00;26.60
19403;DHT22;9837;48.888;8.998;2023-10-09T14:13:57;29.70;26.70
19403;DHT22;9837;48.888;8.998;2023-10-09T14:18:55;29.50;27.80
19403;DHT22;9837;48.888;8.998;2023-10-09T14:21:27;29.50;27.70
19403;DHT22;9837;48.888;8.998;2023-10-09T14:23:56;29.40;27.80
19403;DHT22;9837;48.888;8.998;2023-10-09T14:26:28;29.40;27.70
19403;DHT22;9837;48.888;8.998;2023-10-09T14:28:55;29.40;28.30
19403;DHT22;9837;48.888;8.998;2023-10-09T14:31:25;29.20;28.70
19403;DHT22;9837;48.888;8.998;2023-10-09T14:33:58;29.60;29.20
19403;DHT22;9837;48.888;8.998;2023-10-09T14:36:24;29.30;29.20
19403;DHT22;9837;48.888;8.998;2023-10-09T14:38:59;29.20;29.10
19403;DHT22;9837;48.888;8.998;2023-10-09T14:41:25;29.20;29.20
19403;DHT22;9837;48.888;8.998;2023-10-09T14:43:52;29.20;29.50
19403;DHT22;9837;48.888;8.998;2023-10-09T14:46:18;29.10;30.00
19403;DHT22;9837;48.888;8.998;2023-10-09T14:49:02;29.10;29.90
19403;DHT22;9837;48.888;8.998;2023-10-09T14:53:56;29.00;29.80
19403;DHT22;9837;48.888;8.998;2023-10-09T14:56:27;28.90;28.70
19403;DHT22;9837;48.888;8.998;2023-10-09T14:59:00;28.80;28.80
19403;DHT22;9837;48.888;8.998;2023-10-09T15:01:26;28.80;28.70
19403;DHT22;9837;48.888;8.998;2023-10-09T15:03:56;28.80;29.00
19403;DHT22;9837;48.888;8.998;2023-10-09T15:06:24;28.80;29.40
19403;DHT22;9837;48.888;8.998;2023-10-09T15:11:15;28.70;29.50
19403;DHT22;9837;48.888;8.998;2023-10-09T15:13:41;28.70;29.40
19403;DHT22;9837;48.888;8.998;2023-10-09T15:16:07;28.70;29.50
19403;DHT22;9837;48.888;8.998;2023-10-09T15:18:33;28.60;29.70
19403;DHT22;9837;48.888;8.998;2023-10-09T15:20:59;28.50;30.00
19403;DHT22;9837;48.888;8.998;2023-10-09T15:23:26;28.50;29.70
19403;DHT22;9837;48.888;8.998;2023-10-09T15:25:52;28.40;29.90
19403;DHT22;9837;48.888;8.998;2023-10-09T15:28:23;28.40;30.20
19403;DHT22;9837;48.888;8.998;2023-10-09T15:30:49;28.30;30.20
19403;DHT22;9837;48.888;8.998;2023-10-09T15:35:46;28.30;30.50
19403;DHT22;9837;48.888;8.998;2023-10-09T15:38:17;28.20;30.60
19403;DHT22;9837;48.888;8.998;2023-10-09T15:40:44;28.10;31.10
19403;DHT22;9837;48.888;8.998;2023-10-09T15:43:13;28.10;31.20
19403;DHT22;9837;48.888;8.998;2023-10-09T15:45:45;28.10;31.50
19403;DHT22;9837;48.888;8.998;2023-10-09T15:48:14;28.00;31.80
19403;DHT22;9837;48.888;8.998;2023-10-09T15:50:45;28.00;32.10
19403;DHT22;9837;48.888;8.998;2023-10-09T15:53:14;27.90;32.70
19403;DHT22;9837;48.888;8.998;2023-10-09T15:55:43;27.80;32.70
19403;DHT22;9837;48.888;8.998;2023-10-09T15:58:09;27.80;32.90
19403;DHT22;9837;48.888;8.998;2023-10-09T16:00:34;27.70;32.50
19403;DHT22;9837;48.888;8.998;2023-10-09T16:05:26;27.60;32.20
19403;DHT22;9837;48.888;8.998;2023-10-09T16:07:52;27.60;32.80
19403;DHT22;9837;48.888;8.998;2023-10-09T16:10:19;27.50;33.30
19403;DHT22;9837;48.888;8.998;2023-10-09T16:12:46;27.40;32.60
19403;DHT22;9837;48.888;8.998;2023-10-09T16:15:13;27.40;32.90
19403;DHT22;9837;48.888;8.998;2023-10-09T16:17:40;27.30;32.80
19403;DHT22;9837;48.888;8.998;2023-10-09T16:20:08;27.30;33.00
19403;DHT22;9837;48.888;8.998;2023-10-09T16:22:54;27.20;33.10
19403;DHT22;9837;48.888;8.998;2023-10-09T16:25:21;27.20;33.30
19403;DHT22;9837;48.888;8.998;2023-10-09T16:27:49;27.20;34.00
19403;DHT22;9837;48.888;8.998;2023-10-09T16:30:16;27.10;34.10
19403;DHT22;9837;48.888;8.998;2023-10-09T16:32:47;27.00;34.60
19403;DHT22;9837;48.888;8.998;2023-10-09T16:42:37;26.60;35.50
19403;DHT22;9837;48.888;8.998;2023-10-09T16:45:03;26.50;36.10
19403;DHT22;9837;48.888;8.998;2023-10-09T16:49:58;26.30;36.00
19403;DHT22;9837;48.888;8.998;2023-10-09T16:54:51;26.20;36.50
19403;DHT22;9837;48.888;8.998;2023-10-09T16:57:17;26.10;36.50
19403;DHT22;9837;48.888;8.998;2023-10-09T16:59:43;26.00;36.60
19403;DHT22;9837;48.888;8.998;2023-10-09T17:02:09;26.00;37.00
19403;DHT22;9837;48.888;8.998;2023-10-09T17:04:38;25.90;37.10
19403;DHT22;9837;48.888;8.998;2023-10-09T17:07:05;25.60;37.40
19403;DHT22;9837;48.888;8.998;2023-10-09T17:09:40;25.70;37.40
19403;DHT22;9837;48.888;8.998;2023-10-09T17:12:07;25.70;37.60
19403;DHT22;9837;48.888;8.998;2023-10-09T17:14:33;25.70;38.00
19403;DHT22;9837;48.888;8.998;2023-10-09T17:16:59;25.60;38.00
19403;DHT22;9837;48.888;8.998;2023-10-09T17:19:26;25.50;38.40
19403;DHT22;9837;48.888;8.998;2023-10-09T17:24:17;25.50;38.50
19403;DHT22;9837;48.888;8.998;2023-10-09T17:26:46;25.40;38.80
19403;DHT22;9837;48.888;8.998;2023-10-09T17:31:38;25.20;39.10
19403;DHT22;9837;48.888;8.998;2023-10-09T17:34:05;25.10;39.20
19403;DHT22;9837;48.888;8.998;2023-10-09T17:36:34;25.10;39.40
19403;DHT22;9837;48.888;8.998;2023-10-09T17:41:30;24.90;39.70
19403;DHT22;9837;48.888;8.998;2023-10-09T17:44:01;24.90;39.80
19403;DHT22;9837;48.888;8.998;2023-10-09T17:46:27;24.80;39.70
19403;DHT22;9837;48.888;8.998;2023-10-09T17:48:54;24.80;40.10
19403;DHT22;9837;48.888;8.998;2023-10-09T17:51:21;24.80;40.30
19403;DHT22;9837;48.888;8.998;2023-10-09T17:56:14;24.70;41.00
19403;DHT22;9837;48.888;8.998;2023-10-09T17:58:43;24.70;41.20
19403;DHT22;9837;48.888;8.998;2023-10-09T18:01:15;24.60;41.40
19403;DHT22;9837;48.888;8.998;2023-10-09T18:03:41;24.60;41.90
19403;DHT22;9837;48.888;8.998;2023-10-09T18:06:06;24.50;41.80